Time;durP1;ratioP1;P1;durP2;ratioP2;P2;SDS_P1;SDS_P2;PMS_P1;PMS_P2;Temp;Humidity;BMP_temperature;BMP_pressure;BME280_temperature;BME280_humidity;BME280_pressure;Samples;Min_cycle;Max_cycle;Signal;HPM_P1;HPM_P2
2021/05/14 00:01:55;;;;;;;10.82;6.28;;;16.10;66.40;;;;;;5158655;27;20515;-71
2021/05/14 00:04:21;;;;;;;6.03;5.30;;;16.10;66.60;;;;;;5158979;27;20050;-72
2021/05/14 00:06:47;;;;;;;15.00;5.88;;;16.10;66.60;;;;;;5158612;27;20098;-71
2021/05/14 00:09:14;;;;;;;6.72;5.10;;;16.10;66.70;;;;;;5158723;27;20087;-71
2021/05/14 00:11:40;;;;;;;8.57;5.70;;;16.10;66.70;;;;;;5158561;27;20044;-71
2021/05/14 00:14:07;;;;;;;7.47;5.10;;;16.10;66.70;;;;;;5158498;27;20034;-71
2021/05/14 00:16:34;;;;;;;6.72;4.90;;;16.10;66.60;;;;;;5158457;27;20019;-71
2021/05/14 00:19:00;;;;;;;12.70;5.35;;;16.10;66.30;;;;;;5158297;27;20034;-71
2021/05/14 00:21:30;;;;;;;7.43;4.93;;;16.10;66.10;;;;;;5158365;27;20031;-71
2021/05/14 00:23:56;;;;;;;5.95;5.32;;;16.10;66.00;;;;;;5158231;27;20027;-71
2021/05/14 00:26:22;;;;;;;8.27;5.50;;;16.20;65.70;;;;;;5158283;27;20033;-71
2021/05/14 00:28:48;;;;;;;7.70;5.07;;;16.20;65.60;;;;;;5157962;27;20037;-71
2021/05/14 00:31:15;;;;;;;6.95;5.18;;;16.20;65.50;;;;;;5158635;27;20031;-71
2021/05/14 00:33:41;;;;;;;8.52;5.72;;;16.20;65.60;;;;;;5158146;27;20041;-71
2021/05/14 00:36:07;;;;;;;8.13;5.88;;;16.20;65.80;;;;;;5158331;27;20368;-70
2021/05/14 00:38:32;;;;;;;15.20;5.70;;;16.20;65.90;;;;;;5158035;27;20023;-71
2021/05/14 00:40:58;;;;;;;7.57;6.10;;;16.30;66.10;;;;;;5158520;27;20034;-71
2021/05/14 00:43:24;;;;;;;7.45;5.57;;;16.30;66.30;;;;;;5158342;27;20058;-71
2021/05/14 00:45:50;;;;;;;7.28;5.10;;;16.30;66.20;;;;;;5158448;27;20026;-71
2021/05/14 00:48:15;;;;;;;6.97;4.82;;;16.30;66.10;;;;;;5157873;27;20102;-71
2021/05/14 00:50:41;;;;;;;8.30;5.35;;;16.30;65.90;;;;;;5157897;27;20026;-71
2021/05/14 00:53:07;;;;;;;8.43;5.72;;;16.30;65.90;;;;;;5157734;27;20030;-71
2021/05/14 00:55:32;;;;;;;8.93;5.30;;;16.20;65.90;;;;;;5157750;27;20049;-71
2021/05/14 00:57:59;;;;;;;8.00;5.80;;;16.20;65.90;;;;;;5157290;27;20038;-71
2021/05/14 01:00:25;;;;;;;6.80;5.53;;;16.20;65.90;;;;;;5139124;27;20159;-71
2021/05/14 01:02:52;;;;;;;8.38;6.13;;;16.20;65.90;;;;;;5157539;27;20105;-71
2021/05/14 01:05:22;;;;;;;6.35;4.85;;;16.20;66.00;;;;;;5157803;27;20033;-71
2021/05/14 01:07:50;;;;;;;6.40;5.35;;;16.20;65.90;;;;;;5157474;27;20027;-71
2021/05/14 01:10:17;;;;;;;6.60;5.80;;;16.20;65.90;;;;;;5157723;27;20047;-72
2021/05/14 01:12:44;;;;;;;10.40;5.95;;;16.20;66.10;;;;;;5157960;27;20050;-70
2021/05/14 01:15:10;;;;;;;7.53;5.50;;;16.10;66.20;;;;;;5157298;27;20030;-70
2021/05/14 01:17:36;;;;;;;8.65;5.70;;;16.10;66.30;;;;;;5156964;27;20023;-70
2021/05/14 01:20:04;;;;;;;10.23;5.90;;;16.10;66.50;;;;;;5157244;27;20025;-70
2021/05/14 01:22:30;;;;;;;7.18;5.53;;;16.10;66.80;;;;;;5157123;27;20068;-70
2021/05/14 01:24:56;;;;;;;7.78;5.63;;;16.00;66.90;;;;;;5157320;27;20035;-70
2021/05/14 01:27:22;;;;;;;9.95;6.03;;;16.00;67.00;;;;;;5138481;27;20064;-70
2021/05/14 01:29:48;;;;;;;10.50;6.32;;;16.00;67.10;;;;;;5138463;27;20031;-70
2021/05/14 01:32:16;;;;;;;11.27;6.28;;;16.00;67.20;;;;;;5156951;27;20022;-71
2021/05/14 01:34:42;;;;;;;9.32;6.40;;;16.00;67.30;;;;;;5156952;27;20078;-70
2021/05/14 01:37:08;;;;;;;9.70;6.97;;;16.00;67.30;;;;;;5156612;27;20030;-70
2021/05/14 01:39:34;;;;;;;10.88;6.57;;;16.00;67.40;;;;;;5155664;27;20056;-70
2021/05/14 01:42:01;;;;;;;9.82;6.82;;;16.00;67.50;;;;;;5157079;27;20089;-70
2021/05/14 01:44:27;;;;;;;10.88;7.45;;;16.00;67.60;;;;;;5156668;27;20023;-71
2021/05/14 01:46:53;;;;;;;10.02;7.15;;;16.00;67.70;;;;;;5156752;27;20084;-71
2021/05/14 01:49:19;;;;;;;18.65;8.45;;;15.90;67.70;;;;;;5156643;27;20464;-72
2021/05/14 01:51:45;;;;;;;14.90;7.85;;;15.90;67.90;;;;;;5157050;27;20034;-72
2021/05/14 01:54:11;;;;;;;13.23;7.88;;;15.90;67.90;;;;;;5156951;27;20034;-71
2021/05/14 01:56:36;;;;;;;14.88;8.77;;;15.90;68.10;;;;;;5138486;27;20022;-71
2021/05/14 01:59:04;;;;;;;12.27;8.40;;;15.90;68.30;;;;;;5156437;27;20026;-71
2021/05/14 02:01:30;;;;;;;14.75;8.98;;;15.80;68.40;;;;;;5156384;27;20027;-71
2021/05/14 02:03:56;;;;;;;15.82;8.93;;;15.80;68.60;;;;;;5156295;27;20034;-72
2021/05/14 02:06:21;;;;;;;13.50;8.85;;;15.80;68.80;;;;;;5156257;27;20027;-71
2021/05/14 02:08:47;;;;;;;16.20;9.48;;;15.80;69.00;;;;;;5156269;27;20023;-73
2021/05/14 02:11:13;;;;;;;18.05;9.82;;;15.70;69.10;;;;;;5156511;27;20030;-71
2021/05/14 02:13:40;;;;;;;17.50;10.15;;;15.70;69.30;;;;;;5154892;27;20042;-72
2021/05/14 02:16:07;;;;;;;17.75;10.57;;;15.70;70.10;;;;;;5156014;27;20086;-71
2021/05/14 02:18:34;;;;;;;16.60;10.02;;;15.70;69.60;;;;;;5155626;27;20095;-71
2021/05/14 02:21:00;;;;;;;19.58;11.25;;;15.70;69.80;;;;;;5155692;27;20469;-72
2021/05/14 02:23:26;;;;;;;16.13;10.45;;;15.60;69.90;;;;;;5156075;27;20065;-73
2021/05/14 02:25:52;;;;;;;19.80;10.90;;;15.70;70.00;;;;;;5155852;27;20117;-71
2021/05/14 02:28:18;;;;;;;21.15;10.38;;;15.60;70.10;;;;;;5156650;27;20048;-70
2021/05/14 02:30:44;;;;;;;16.00;9.48;;;15.60;70.20;;;;;;5155818;27;20102;-72
2021/05/14 02:33:10;;;;;;;16.40;8.52;;;15.60;70.30;;;;;;5155385;27;20113;-70
2021/05/14 02:35:36;;;;;;;13.52;8.43;;;15.60;70.30;;;;;;5155621;27;20113;-70
2021/05/14 02:38:05;;;;;;;12.57;7.97;;;15.60;70.30;;;;;;5155668;27;20031;-71
2021/05/14 02:40:32;;;;;;;12.35;7.90;;;15.60;70.50;;;;;;5155646;27;20118;-71
2021/05/14 02:42:57;;;;;;;11.65;8.00;;;15.60;70.40;;;;;;5156178;27;20109;-71
2021/05/14 02:45:24;;;;;;;11.73;7.63;;;15.60;70.40;;;;;;5155641;27;20105;-72
2021/05/14 02:47:50;;;;;;;10.77;7.07;;;15.60;70.50;;;;;;5155822;27;20022;-71
2021/05/14 02:50:16;;;;;;;11.73;7.45;;;15.60;70.60;;;;;;5155558;27;20022;-72
2021/05/14 02:52:42;;;;;;;13.07;7.93;;;15.70;70.80;;;;;;5155375;27;20019;-71
2021/05/14 02:55:09;;;;;;;14.23;6.90;;;15.60;70.90;;;;;;5155330;27;20031;-71
2021/05/14 02:57:35;;;;;;;13.75;7.90;;;15.70;71.10;;;;;;5155251;27;20494;-71
2021/05/14 03:00:03;;;;;;;10.77;7.30;;;15.70;71.20;;;;;;5154149;27;20031;-71
2021/05/14 03:02:28;;;;;;;17.45;7.65;;;15.70;71.50;;;;;;5155402;27;20035;-72
2021/05/14 03:04:54;;;;;;;12.70;7.38;;;15.70;71.60;;;;;;5155117;27;20110;-72
2021/05/14 03:07:20;;;;;;;15.60;7.63;;;15.70;71.80;;;;;;5155008;27;20026;-71
2021/05/14 03:09:46;;;;;;;10.82;6.40;;;15.70;71.80;;;;;;5155194;27;20027;-71
2021/05/14 03:12:12;;;;;;;8.75;7.13;;;15.70;71.90;;;;;;5154875;27;20033;-71
2021/05/14 03:14:38;;;;;;;11.23;6.95;;;15.70;72.00;;;;;;5155749;27;20133;-71
2021/05/14 03:17:04;;;;;;;12.82;6.63;;;15.70;72.10;;;;;;5155094;27;20106;-71
2021/05/14 03:19:29;;;;;;;9.15;6.20;;;15.70;72.20;;;;;;5155867;27;20041;-70
2021/05/14 03:21:55;;;;;;;7.75;6.00;;;15.70;72.20;;;;;;5155441;27;20465;-71
2021/05/14 03:24:21;;;;;;;7.68;5.78;;;15.80;72.30;;;;;;5136549;27;20027;-72
2021/05/14 03:26:47;;;;;;;9.23;5.72;;;15.80;72.20;;;;;;5155158;27;20070;-71
2021/05/14 03:29:13;;;;;;;8.15;5.72;;;15.80;72.10;;;;;;5155643;27;20091;-71
2021/05/14 03:31:39;;;;;;;7.00;5.35;;;15.90;71.90;;;;;;5155355;27;20019;-71
2021/05/14 03:34:05;;;;;;;9.93;5.45;;;15.90;71.70;;;;;;5155328;27;20506;-70
2021/05/14 03:36:30;;;;;;;6.07;4.93;;;16.00;71.70;;;;;;5155311;27;20349;-70
2021/05/14 03:38:57;;;;;;;6.68;4.47;;;16.10;71.40;;;;;;5155033;27;20050;-70
2021/05/14 03:43:55;;;;;;;5.95;4.20;;;16.20;70.30;;;;;;5155661;27;20031;-71
2021/05/14 03:46:21;;;;;;;6.00;4.47;;;16.30;69.70;;;;;;5155007;27;20039;-71
2021/05/14 03:48:47;;;;;;;8.40;4.65;;;16.30;69.20;;;;;;5155257;27;20030;-71
2021/05/14 03:51:13;;;;;;;6.03;4.53;;;16.30;68.90;;;;;;5155415;27;20031;-70
2021/05/14 03:53:38;;;;;;;7.47;4.22;;;16.30;68.60;;;;;;5155372;27;20035;-71
2021/05/14 03:56:05;;;;;;;4.95;3.75;;;16.30;68.30;;;;;;5155629;27;20050;-71
2021/05/14 03:58:30;;;;;;;6.60;4.00;;;16.30;68.00;;;;;;5154766;27;20357;-71
2021/05/14 04:00:56;;;;;;;6.95;4.57;;;16.40;67.90;;;;;;5154843;27;20024;-70
2021/05/14 04:03:22;;;;;;;5.38;4.28;;;16.40;67.70;;;;;;5155685;27;20078;-71
2021/05/14 04:05:49;;;;;;;4.15;3.55;;;16.50;67.60;;;;;;5158595;27;20066;-71
2021/05/14 04:08:15;;;;;;;8.55;4.78;;;16.50;67.40;;;;;;5158624;27;20019;-72
2021/05/14 04:16:07;;;;;;;7.32;4.10;;;16.60;67.00;;;;;;5158229;27;20067;-71
2021/05/14 04:18:36;;;;;;;5.80;4.20;;;16.60;66.70;;;;;;5157894;27;20030;-71
2021/05/14 04:21:03;;;;;;;8.70;4.20;;;16.60;66.70;;;;;;5157876;27;20528;-71
2021/05/14 04:23:29;;;;;;;5.32;4.13;;;16.70;66.60;;;;;;5158253;27;20375;-72
2021/05/14 04:25:55;;;;;;;6.85;4.43;;;16.70;66.50;;;;;;5157985;27;20026;-71
2021/05/14 04:28:20;;;;;;;8.50;4.40;;;16.80;66.40;;;;;;5158788;27;20023;-72
2021/05/14 04:30:46;;;;;;;7.28;4.57;;;16.90;66.30;;;;;;5158390;27;20380;-71
2021/05/14 04:33:12;;;;;;;8.85;3.97;;;17.00;66.20;;;;;;5158351;27;20078;-71
2021/05/14 04:35:37;;;;;;;6.68;4.13;;;17.10;66.00;;;;;;5158370;27;20027;-71
2021/05/14 04:38:03;;;;;;;6.03;4.28;;;17.20;65.60;;;;;;5157638;27;20050;-72
2021/05/14 04:40:29;;;;;;;5.95;4.10;;;17.20;65.30;;;;;;5158500;27;20038;-73
2021/05/14 04:43:03;;;;;;;5.85;4.00;;;17.20;65.40;;;;;;5157516;27;20476;-72
2021/05/14 04:45:29;;;;;;;6.72;4.28;;;17.10;65.40;;;;;;5157643;27;20514;-72
2021/05/14 04:47:55;;;;;;;8.27;4.25;;;17.10;65.50;;;;;;5157739;27;20038;-71
2021/05/14 04:50:21;;;;;;;6.70;4.43;;;17.10;65.50;;;;;;5157915;27;20019;-73
2021/05/14 04:52:47;;;;;;;4.75;3.83;;;17.00;65.70;;;;;;5139386;27;20023;-72
2021/05/14 04:55:15;;;;;;;5.22;4.05;;;17.00;65.60;;;;;;5157348;27;20036;-72
2021/05/14 04:57:41;;;;;;;7.40;4.03;;;16.90;65.80;;;;;;5157284;27;20487;-72
2021/05/14 05:00:07;;;;;;;7.15;4.30;;;16.90;66.00;;;;;;5157646;27;20015;-71
2021/05/14 05:02:33;;;;;;;6.72;4.72;;;16.90;66.10;;;;;;5157514;27;20019;-72
2021/05/14 05:05:00;;;;;;;4.90;4.40;;;16.90;66.30;;;;;;5157475;27;20033;-72
2021/05/14 05:07:27;;;;;;;13.88;4.75;;;17.00;66.40;;;;;;5157111;27;20421;-73
2021/05/14 05:09:53;;;;;;;7.80;5.35;;;17.00;66.50;;;;;;5157793;27;20076;-71
2021/05/14 05:12:18;;;;;;;7.85;5.50;;;17.10;66.60;;;;;;5157459;27;20420;-72
2021/05/14 05:14:45;;;;;;;7.63;5.30;;;17.20;66.50;;;;;;5157492;27;20079;-72
2021/05/14 05:17:11;;;;;;;7.65;5.05;;;17.30;66.30;;;;;;5139436;27;20436;-72
2021/05/14 05:19:37;;;;;;;7.53;4.82;;;17.50;66.20;;;;;;5157519;27;20080;-72
2021/05/14 05:22:02;;;;;;;8.02;5.30;;;17.70;66.10;;;;;;5138562;27;20023;-71
2021/05/14 05:24:28;;;;;;;10.45;5.45;;;18.00;65.80;;;;;;5156736;27;20391;-73
2021/05/14 05:26:54;;;;;;;7.65;5.30;;;18.20;65.40;;;;;;5156857;27;20456;-72
2021/05/14 05:29:19;;;;;;;7.57;5.35;;;18.40;64.70;;;;;;5156861;27;20015;-71
2021/05/14 05:31:45;;;;;;;9.02;5.70;;;18.60;64.20;;;;;;5156887;27;20018;-72
2021/05/14 05:34:11;;;;;;;7.68;5.47;;;18.70;63.80;;;;;;5138270;27;20031;-72
2021/05/14 05:36:36;;;;;;;9.10;5.43;;;18.80;63.50;;;;;;5157357;27;20053;-71
2021/05/14 05:39:03;;;;;;;10.82;6.35;;;18.90;63.30;;;;;;5157030;27;20027;-72
2021/05/14 05:41:29;;;;;;;9.98;6.18;;;19.00;63.00;;;;;;5156480;27;20031;-71
2021/05/14 05:43:54;;;;;;;13.68;6.13;;;19.00;62.90;;;;;;5157163;27;20061;-73
2021/05/14 05:46:21;;;;;;;7.43;5.90;;;19.10;63.00;;;;;;5156151;27;20464;-73
2021/05/14 05:48:49;;;;;;;10.23;6.38;;;19.30;62.90;;;;;;5156411;27;20031;-71
2021/05/14 05:51:15;;;;;;;9.90;6.35;;;19.50;62.60;;;;;;5156529;27;20118;-71
2021/05/14 05:53:42;;;;;;;13.85;6.68;;;19.70;62.10;;;;;;5156347;27;20091;-72
2021/05/14 05:56:08;;;;;;;13.73;5.65;;;20.00;61.80;;;;;;5156942;27;20035;-72
2021/05/14 05:58:35;;;;;;;8.60;6.07;;;20.20;61.40;;;;;;5156434;27;20130;-72
2021/05/14 06:01:01;;;;;;;40.67;7.10;;;20.40;61.00;;;;;;5155852;27;20460;-73
2021/05/14 06:03:26;;;;;;;24.20;7.18;;;20.70;60.60;;;;;;5155991;27;20067;-71
2021/05/14 06:05:52;;;;;;;16.00;6.22;;;20.90;60.10;;;;;;5155928;27;20029;-72
2021/05/14 06:08:18;;;;;;;9.70;5.95;;;21.10;59.60;;;;;;5156098;27;20357;-71
2021/05/14 06:10:46;;;;;;;9.20;5.75;;;21.30;59.10;;;;;;5156159;27;20106;-72
2021/05/14 06:13:12;;;;;;;10.70;5.40;;;21.40;58.50;;;;;;5156021;27;20071;-71
2021/05/14 06:15:37;;;;;;;11.63;6.13;;;21.50;58.10;;;;;;5156013;27;20026;-72
2021/05/14 06:18:03;;;;;;;8.32;5.35;;;21.50;57.80;;;;;;5138042;27;20030;-72
2021/05/14 06:20:31;;;;;;;9.10;6.13;;;21.30;57.70;;;;;;5155075;27;20464;-70
2021/05/14 06:22:57;;;;;;;21.17;6.55;;;21.20;57.90;;;;;;5155681;27;20420;-72
2021/05/14 06:25:23;;;;;;;17.30;6.63;;;21.20;58.20;;;;;;5155936;27;20031;-71
2021/05/14 06:27:50;;;;;;;10.40;6.55;;;21.10;58.30;;;;;;5155463;27;20049;-71
2021/05/14 06:30:16;;;;;;;11.82;5.90;;;21.10;58.40;;;;;;5155498;27;20029;-72
2021/05/14 06:32:42;;;;;;;19.92;7.15;;;21.20;58.50;;;;;;5156356;27;20022;-72
2021/05/14 06:35:08;;;;;;;10.15;5.80;;;21.20;58.60;;;;;;5155416;27;20082;-72
2021/05/14 06:37:37;;;;;;;14.55;7.15;;;21.30;58.50;;;;;;5156410;27;20134;-71
2021/05/14 06:40:07;;;;;;;12.15;7.38;;;21.50;58.40;;;;;;5155625;27;20354;-71
2021/05/14 06:42:33;;;;;;;14.02;6.22;;;21.60;58.10;;;;;;5156481;27;20095;-72
2021/05/14 06:44:59;;;;;;;13.27;6.38;;;21.80;58.00;;;;;;5155568;27;20051;-71
2021/05/14 06:47:25;;;;;;;12.30;7.15;;;22.00;57.50;;;;;;5156347;27;20333;-72
2021/05/14 06:49:51;;;;;;;14.32;7.00;;;22.00;56.90;;;;;;5155569;27;20029;-71
2021/05/14 06:52:16;;;;;;;12.80;6.55;;;22.00;56.90;;;;;;5155824;27;20477;-72
2021/05/14 06:54:42;;;;;;;15.43;6.40;;;22.10;56.90;;;;;;5155757;27;20105;-71
2021/05/14 06:57:09;;;;;;;13.05;6.80;;;22.20;56.80;;;;;;5153835;27;20023;-73
2021/05/14 06:59:35;;;;;;;13.60;6.80;;;22.30;56.60;;;;;;5155261;27;20050;-72
2021/05/14 07:02:00;;;;;;;14.68;6.32;;;22.30;56.50;;;;;;5155340;27;20080;-73
2021/05/14 07:04:26;;;;;;;15.45;6.30;;;22.50;56.30;;;;;;5155174;27;20056;-72
2021/05/14 07:06:52;;;;;;;16.13;6.75;;;22.80;56.10;;;;;;5155589;27;20030;-72
2021/05/14 07:09:17;;;;;;;27.17;8.23;;;23.00;55.80;;;;;;5155304;27;20034;-72
2021/05/14 07:11:43;;;;;;;18.48;6.75;;;23.20;55.40;;;;;;5155298;27;20375;-72
2021/05/14 07:14:09;;;;;;;16.08;6.38;;;23.40;55.00;;;;;;5155206;27;20532;-72
2021/05/14 07:16:35;;;;;;;10.02;6.32;;;23.50;54.60;;;;;;5136745;27;20080;-71
2021/05/14 07:19:00;;;;;;;9.30;6.28;;;23.60;54.30;;;;;;5154882;27;20466;-72
2021/05/14 07:21:26;;;;;;;13.73;6.70;;;23.70;54.00;;;;;;5154730;27;20019;-74
2021/05/14 07:23:52;;;;;;;15.23;6.90;;;23.80;53.70;;;;;;5154787;27;20030;-72
2021/05/14 07:26:18;;;;;;;24.52;7.80;;;23.90;53.40;;;;;;5155416;27;20042;-72
2021/05/14 07:28:44;;;;;;;11.20;6.78;;;23.90;53.20;;;;;;5136986;27;20034;-71
2021/05/14 07:31:10;;;;;;;16.67;7.00;;;24.00;53.10;;;;;;5136423;27;20372;-71
2021/05/14 07:33:39;;;;;;;12.75;6.50;;;24.00;53.10;;;;;;5155032;27;20035;-71
2021/05/14 07:36:05;;;;;;;13.07;7.60;;;24.10;53.00;;;;;;5136084;27;20018;-72
2021/05/14 07:38:31;;;;;;;19.42;7.63;;;24.20;52.90;;;;;;5138158;27;20476;-72
2021/05/14 07:40:56;;;;;;;12.10;7.53;;;24.20;52.90;;;;;;5159388;27;20056;-73
2021/05/14 07:43:22;;;;;;;11.38;7.13;;;24.20;52.90;;;;;;5140456;27;20041;-71
2021/05/14 07:45:48;;;;;;;11.80;7.57;;;24.10;52.70;;;;;;5158733;27;20049;-72
2021/05/14 07:48:20;;;;;;;13.68;7.55;;;24.10;52.70;;;;;;5158844;27;20029;-71
2021/05/14 07:50:47;;;;;;;15.63;8.07;;;24.00;52.70;;;;;;5157898;27;20452;-72
2021/05/14 07:53:13;;;;;;;15.93;7.95;;;24.00;52.70;;;;;;5159321;27;20034;-72
2021/05/14 07:55:39;;;;;;;18.15;7.80;;;23.80;52.60;;;;;;5158763;27;20521;-72
2021/05/14 07:58:04;;;;;;;13.40;8.55;;;23.90;52.70;;;;;;5158507;27;20502;-72
2021/05/14 08:00:30;;;;;;;20.42;8.93;;;23.80;52.60;;;;;;5158828;27;20030;-72
2021/05/14 08:02:56;;;;;;;15.07;7.63;;;23.90;52.70;;;;;;5159189;27;20019;-72
2021/05/14 08:05:22;;;;;;;13.45;7.75;;;24.00;52.50;;;;;;5158569;27;20417;-71
2021/05/14 08:08:08;;;;;;;20.00;7.75;;;24.10;52.30;;;;;;5159022;27;20034;-73
2021/05/14 08:10:33;;;;;;;30.80;8.32;;;24.20;51.90;;;;;;5158213;27;20414;-71
2021/05/14 08:12:59;;;;;;;15.80;7.80;;;24.40;51.60;;;;;;5158463;27;20079;-72
2021/05/14 08:15:25;;;;;;;20.45;8.55;;;24.60;51.40;;;;;;5158390;27;20071;-71
2021/05/14 08:17:52;;;;;;;11.68;7.60;;;24.70;51.10;;;;;;5158016;27;20109;-71
2021/05/14 08:20:18;;;;;;;18.73;8.50;;;24.80;50.80;;;;;;5157904;27;20059;-75
2021/05/14 08:22:44;;;;;;;14.70;7.50;;;25.00;50.50;;;;;;5139665;27;20054;-72
2021/05/14 08:25:11;;;;;;;9.95;7.43;;;25.20;49.90;;;;;;5158314;27;20077;-72
2021/05/14 08:27:37;;;;;;;18.52;8.30;;;25.30;50.30;;;;;;5158169;27;20026;-71
2021/05/14 08:30:04;;;;;;;13.02;7.80;;;25.60;49.50;;;;;;5157763;27;20352;-71
2021/05/14 08:32:30;;;;;;;10.35;7.25;;;26.00;49.30;;;;;;5157966;27;20131;-72
2021/05/14 08:34:56;;;;;;;11.07;7.20;;;26.50;49.40;;;;;;5158271;27;20110;-73
2021/05/14 08:37:21;;;;;;;14.95;7.82;;;27.00;48.70;;;;;;5139451;27;20372;-72
2021/05/14 08:39:47;;;;;;;11.70;7.32;;;27.50;47.70;;;;;;5158050;27;20427;-73
2021/05/14 08:42:13;;;;;;;14.13;6.85;;;28.00;46.80;;;;;;5158285;27;20038;-72
2021/05/14 08:44:43;;;;;;;10.45;6.57;;;28.20;46.20;;;;;;5158317;27;20030;-71
2021/05/14 08:47:11;;;;;;;11.90;5.85;;;28.60;45.70;;;;;;5157843;27;20042;-73
2021/05/14 08:49:39;;;;;;;17.70;6.55;;;29.00;45.10;;;;;;5157378;27;20018;-72
2021/05/14 08:52:08;;;;;;;8.52;6.15;;;29.20;44.60;;;;;;5139827;27;20027;-73
2021/05/14 08:54:42;;;;;;;14.10;6.50;;;29.30;44.20;;;;;;5139184;27;20079;-71
2021/05/14 08:57:09;;;;;;;26.23;6.32;;;29.70;43.70;;;;;;5157907;27;20027;-71
2021/05/14 08:59:34;;;;;;;10.98;7.07;;;29.90;43.10;;;;;;5157353;27;20076;-72
2021/05/14 09:02:01;;;;;;;9.10;6.22;;;30.10;42.50;;;;;;5157537;27;20022;-71
2021/05/14 09:04:30;;;;;;;12.82;6.43;;;30.40;42.30;;;;;;5156275;27;20433;-74
2021/05/14 09:06:56;;;;;;;8.80;5.40;;;31.00;41.90;;;;;;5157394;27;20026;-72
2021/05/14 09:09:22;;;;;;;10.60;5.95;;;31.40;41.70;;;;;;5157295;27;20018;-72
2021/05/14 09:11:51;;;;;;;10.55;5.90;;;31.60;41.10;;;;;;5157345;27;20452;-71
2021/05/14 09:14:46;;;;;;;9.25;5.53;;;32.00;41.10;;;;;;5156090;27;20018;-72
2021/05/14 09:17:18;;;;;;;9.98;5.50;;;32.50;40.50;;;;;;5157689;27;20027;-74
2021/05/14 09:19:46;;;;;;;26.75;5.82;;;33.10;40.20;;;;;;5157117;27;20076;-72
2021/05/14 09:22:17;;;;;;;8.50;5.68;;;33.70;39.40;;;;;;5157324;27;20456;-72
2021/05/14 09:24:47;;;;;;;8.82;5.28;;;34.20;39.00;;;;;;5157457;27;20473;-71
2021/05/14 09:27:30;;;;;;;11.88;5.55;;;34.80;38.40;;;;;;5138508;27;20033;-73
2021/05/14 09:30:00;;;;;;;9.90;6.15;;;35.50;37.80;;;;;;5156893;27;20023;-73
2021/05/14 09:32:34;;;;;;;17.50;6.72;;;36.10;36.90;;;;;;5156727;27;20101;-71
2021/05/14 09:35:01;;;;;;;9.90;5.93;;;36.50;36.00;;;;;;5157282;27;20027;-73
2021/05/14 09:37:28;;;;;;;21.60;5.97;;;36.90;35.60;;;;;;5138327;27;20106;-71
2021/05/14 09:40:15;;;;;;;6.47;5.45;;;37.10;35.10;;;;;;5157085;27;20022;-72
2021/05/14 09:42:41;;;;;;;7.25;5.25;;;37.30;34.60;;;;;;5156803;27;20027;-72
2021/05/14 09:45:23;;;;;;;10.43;5.47;;;37.50;34.50;;;;;;5156779;27;20368;-73
2021/05/14 09:48:01;;;;;;;7.10;5.05;;;37.80;33.90;;;;;;5156488;27;20128;-72
2021/05/14 09:50:34;;;;;;;9.18;4.82;;;37.90;33.40;;;;;;5156504;27;20027;-72
2021/05/14 09:53:20;;;;;;;9.50;4.65;;;38.00;33.40;;;;;;5156519;27;20022;-71
2021/05/14 09:58:26;;;;;;;6.57;4.38;;;38.90;33.10;;;;;;5156240;27;20023;-72
2021/05/14 10:00:52;;;;;;;6.10;4.13;;;39.40;33.00;;;;;;5155624;27;20354;-72
2021/05/14 10:03:21;;;;;;;9.63;4.47;;;39.80;32.60;;;;;;5138170;27;20122;-71
2021/05/14 10:05:49;;;;;;;6.90;3.97;;;40.10;32.00;;;;;;5155432;27;20038;-72
2021/05/14 10:08:19;;;;;;;7.43;3.72;;;40.40;31.80;;;;;;5155760;27;20065;-72
2021/05/14 10:10:45;;;;;;;10.85;4.35;;;40.70;31.70;;;;;;5156038;27;20042;-71
2021/05/14 10:13:12;;;;;;;12.95;4.50;;;41.20;31.50;;;;;;5155794;27;20068;-73
2021/05/14 10:15:38;;;;;;;14.02;5.22;;;41.10;31.00;;;;;;5156314;27;20512;-71
2021/05/14 10:18:07;;;;;;;11.80;4.00;;;40.70;31.00;;;;;;5156251;27;20460;-72
2021/05/14 10:20:36;;;;;;;18.88;6.13;;;40.00;30.80;;;;;;5155769;27;20109;-72
2021/05/14 10:23:03;;;;;;;12.45;4.70;;;39.50;31.20;;;;;;5155804;27;20027;-72
2021/05/14 10:25:37;;;;;;;15.73;5.18;;;39.10;31.40;;;;;;5155889;27;20026;-71
2021/05/14 10:28:23;;;;;;;10.10;4.50;;;38.10;31.60;;;;;;5156055;27;20023;-72
2021/05/14 10:31:00;;;;;;;13.65;4.30;;;37.10;32.30;;;;;;5156505;27;20023;-71
2021/05/14 10:33:46;;;;;;;11.45;3.88;;;36.80;33.00;;;;;;5155525;27;20372;-72
2021/05/14 10:36:15;;;;;;;6.43;4.40;;;37.70;33.20;;;;;;5155031;27;20361;-72
2021/05/14 10:38:41;;;;;;;10.10;4.22;;;38.10;32.80;;;;;;5155395;27;20018;-72
2021/05/14 10:41:26;;;;;;;7.45;4.15;;;38.00;32.80;;;;;;5155930;27;20159;-72
2021/05/14 10:44:08;;;;;;;7.85;4.60;;;37.40;32.70;;;;;;5155292;27;20057;-73
2021/05/14 10:46:34;;;;;;;12.40;4.78;;;36.60;33.10;;;;;;5155138;27;20023;-72
2021/05/14 10:49:11;;;;;;;8.55;4.40;;;36.10;33.50;;;;;;5156009;27;20022;-72
2021/05/14 10:51:45;;;;;;;12.35;4.28;;;35.90;33.90;;;;;;5155478;27;20030;-71
2021/05/14 10:54:40;;;;;;;6.30;4.25;;;35.40;34.00;;;;;;5137490;27;20478;-73
2021/05/14 10:57:07;;;;;;;11.23;4.60;;;34.80;34.30;;;;;;5155636;27;20026;-72
2021/05/14 10:59:35;;;;;;;7.72;4.53;;;34.30;34.80;;;;;;5154928;27;20027;-71
2021/05/14 11:02:21;;;;;;;6.80;4.72;;;33.90;35.30;;;;;;5136910;27;20023;-73
2021/05/14 11:04:48;;;;;;;9.18;4.75;;;33.60;35.80;;;;;;5155382;27;20050;-72
2021/05/14 11:07:36;;;;;;;6.57;4.40;;;33.50;36.00;;;;;;5155147;27;20079;-73
2021/05/14 11:10:14;;;;;;;12.00;4.53;;;33.50;35.90;;;;;;5155370;27;20109;-72
2021/05/14 11:12:44;;;;;;;6.82;4.35;;;33.10;36.10;;;;;;5155045;27;20341;-71
2021/05/14 11:15:19;;;;;;;52.83;7.40;;;33.10;36.60;;;;;;5155181;27;20030;-73
2021/05/14 11:18:21;;;;;;;24.42;6.53;;;33.10;36.70;;;;;;5155238;27;20030;-72
2021/05/14 11:20:48;;;;;;;10.25;4.70;;;34.30;36.60;;;;;;5121874;27;20472;-72
2021/05/14 11:23:33;;;;;;;23.10;6.32;;;35.70;35.80;;;;;;5155053;27;20022;-72
2021/05/14 11:25:59;;;;;;;14.88;5.60;;;36.30;34.40;;;;;;5155066;27;20031;-72
2021/05/14 11:28:45;;;;;;;8.63;4.93;;;35.90;34.20;;;;;;5154890;27;20027;-72
2021/05/14 11:31:24;;;;;;;10.55;3.67;;;35.30;34.30;;;;;;5155527;27;20023;-72
2021/05/14 11:33:55;;;;;;;4.32;2.65;;;34.50;34.10;;;;;;5155131;27;20037;-72
2021/05/14 11:36:22;;;;;;;4.28;2.70;;;34.00;34.10;;;;;;5155019;27;20019;-72
2021/05/14 11:38:52;;;;;;;11.13;4.07;;;34.80;34.30;;;;;;5155492;27;20031;-73
2021/05/14 11:41:31;;;;;;;6.65;2.55;;;36.10;34.10;;;;;;5154871;27;20533;-72
2021/05/14 11:44:02;;;;;;;3.80;2.45;;;37.40;32.50;;;;;;5154820;27;20087;-71
2021/05/14 11:46:31;;;;;;;10.07;2.85;;;38.40;31.50;;;;;;5154134;27;20361;-73
2021/05/14 11:49:04;;;;;;;7.50;2.50;;;38.10;31.50;;;;;;5154639;27;20492;-72
2021/05/14 11:51:29;;;;;;;5.05;2.60;;;37.70;30.90;;;;;;5154800;27;20080;-73
2021/05/14 11:54:11;;;;;;;10.43;2.40;;;37.80;30.90;;;;;;5154843;27;20035;-72
2021/05/14 11:56:37;;;;;;;7.03;3.05;;;38.20;30.50;;;;;;5155479;27;20435;-72
2021/05/14 11:59:03;;;;;;;7.68;2.60;;;37.80;30.40;;;;;;5154904;27;20098;-72
2021/05/14 12:01:39;;;;;;;6.05;2.70;;;37.00;30.60;;;;;;5154703;27;20022;-72
2021/05/14 12:04:05;;;;;;;6.68;2.65;;;35.80;30.70;;;;;;5154679;27;20510;-72
2021/05/14 12:06:31;;;;;;;5.85;2.95;;;34.70;31.50;;;;;;5154852;27;20482;-72
2021/05/14 12:08:57;;;;;;;5.60;2.80;;;34.00;32.30;;;;;;5154712;27;20031;-72
2021/05/14 12:11:23;;;;;;;6.70;2.80;;;33.70;32.60;;;;;;5136061;27;20019;-73
2021/05/14 12:13:49;;;;;;;3.63;2.58;;;33.60;32.80;;;;;;5136044;27;20031;-72
2021/05/14 12:16:16;;;;;;;6.22;2.40;;;34.30;32.70;;;;;;5154702;27;20058;-78
2021/05/14 12:18:47;;;;;;;33.13;4.10;;;35.20;32.20;;;;;;5153283;27;20067;-72
2021/05/14 12:21:23;;;;;;;5.65;2.42;;;35.20;31.80;;;;;;5154466;27;20395;-72
2021/05/14 12:23:50;;;;;;;4.22;2.50;;;34.60;31.50;;;;;;5154791;27;20033;-72
2021/05/14 12:26:16;;;;;;;3.53;2.30;;;33.60;31.90;;;;;;5158183;27;20033;-76
2021/05/14 12:28:45;;;;;;;8.52;2.70;;;32.70;32.60;;;;;;5158222;27;20019;-72
2021/05/14 12:31:16;;;;;;;5.30;2.60;;;32.10;33.00;;;;;;5158126;27;20078;-72
2021/05/14 12:34:08;;;;;;;5.82;2.67;;;32.00;33.40;;;;;;5158071;27;20035;-72
2021/05/14 12:36:35;;;;;;;4.70;2.58;;;32.30;33.60;;;;;;5158384;27;20477;-72
2021/05/14 12:39:14;;;;;;;6.15;2.40;;;33.30;33.40;;;;;;5157851;27;20078;-72
2021/05/14 12:42:01;;;;;;;8.60;2.42;;;34.20;32.30;;;;;;5157401;27;20494;-72
2021/05/14 12:44:37;;;;;;;3.88;2.20;;;34.50;31.90;;;;;;5157216;27;20035;-72
2021/05/14 12:47:12;;;;;;;3.45;2.40;;;34.40;31.60;;;;;;5157760;27;20384;-73
2021/05/14 12:49:49;;;;;;;5.72;2.30;;;34.90;31.40;;;;;;5157681;27;20137;-71
2021/05/14 12:52:32;;;;;;;2.22;1.95;;;34.70;31.20;;;;;;5138856;27;20027;-73
2021/05/14 12:55:06;;;;;;;2.65;2.30;;;33.90;31.30;;;;;;5157864;27;20038;-72
2021/05/14 12:57:41;;;;;;;6.35;2.53;;;33.00;31.80;;;;;;5156313;27;20075;-72